createdAt,value
2022-09-30T00:01:27.294Z,15.15
2022-09-30T00:03:56.733Z,6.13
2022-09-30T00:06:24.636Z,9.15
2022-09-30T00:08:51.176Z,9.05
2022-09-30T00:11:21.078Z,10.05
2022-09-30T00:13:51.181Z,13.57
2022-09-30T00:16:18.984Z,12.85
2022-09-30T00:18:47.718Z,8.60
2022-09-30T00:21:16.018Z,18.17
2022-09-30T00:23:44.344Z,9.85
2022-09-30T00:26:13.660Z,10.23
2022-09-30T00:28:41.180Z,8.73
2022-09-30T00:31:11.742Z,11.73
2022-09-30T00:33:38.278Z,11.80
2022-09-30T00:36:07.963Z,15.63
2022-09-30T00:38:34.369Z,7.18
2022-09-30T00:41:02.761Z,10.93
2022-09-30T00:43:43.409Z,6.20
2022-09-30T00:46:21.326Z,11.40
2022-09-30T00:48:53.819Z,7.22
2022-09-30T00:51:31.274Z,8.80
2022-09-30T00:54:01.892Z,5.53
2022-09-30T00:56:34.069Z,13.35
2022-09-30T00:59:08.581Z,12.85
2022-09-30T01:01:38.659Z,9.32
2022-09-30T01:04:29.311Z,8.48
2022-09-30T01:06:55.948Z,9.57
2022-09-30T01:09:22.638Z,5.68
2022-09-30T01:11:51.497Z,8.85
2022-09-30T01:14:24.936Z,9.00
2022-09-30T01:17:06.600Z,11.25
2022-09-30T01:19:42.760Z,5.73
2022-09-30T01:22:36.775Z,9.35
2022-09-30T01:25:47.307Z,11.90
2022-09-30T01:28:44.007Z,6.47
2022-09-30T01:31:35.023Z,12.95
2022-09-30T01:34:15.151Z,9.75
2022-09-30T01:36:44.454Z,9.23
2022-09-30T01:39:51.993Z,4.72
2022-09-30T01:42:33.757Z,5.97
2022-09-30T01:45:10.172Z,8.13
2022-09-30T01:47:46.447Z,12.82
2022-09-30T01:50:21.854Z,11.52
2022-09-30T01:53:10.953Z,13.77
2022-09-30T01:55:45.774Z,13.10
2022-09-30T01:58:26.621Z,9.35
2022-09-30T02:01:01.063Z,9.85
2022-09-30T02:03:45.605Z,8.88
2022-09-30T02:06:17.885Z,11.63
2022-09-30T02:11:18.306Z,10.02
2022-09-30T02:14:11.433Z,7.87
2022-09-30T02:16:42.642Z,8.77
2022-09-30T02:19:15.266Z,7.63
2022-09-30T02:21:45.873Z,11.05
2022-09-30T02:24:18.757Z,10.10
2022-09-30T02:26:49.050Z,16.65
2022-09-30T02:29:31.729Z,13.10
2022-09-30T02:32:06.135Z,13.73
2022-09-30T02:34:37.625Z,8.43
2022-09-30T02:37:13.455Z,17.37
2022-09-30T02:40:07.220Z,8.23
2022-09-30T02:42:37.294Z,7.28
2022-09-30T02:48:43.055Z,14.02
2022-09-30T02:51:21.295Z,5.22
2022-09-30T02:54:10.177Z,8.27
2022-09-30T02:56:57.719Z,7.60
2022-09-30T02:59:26.431Z,6.22
2022-09-30T03:01:53.060Z,8.55
2022-09-30T03:04:25.571Z,5.72
2022-09-30T03:06:52.161Z,6.70
2022-09-30T03:09:21.917Z,8.27
2022-09-30T03:11:52.823Z,8.77
2022-09-30T03:14:39.556Z,12.05
2022-09-30T03:17:22.322Z,4.63
2022-09-30T03:20:10.072Z,9.07
2022-09-30T03:22:51.845Z,5.55
2022-09-30T03:25:50.288Z,10.90
2022-09-30T03:28:19.649Z,8.07
2022-09-30T03:30:53.279Z,11.68
2022-09-30T03:33:25.256Z,12.23
2022-09-30T03:36:39.681Z,9.82
2022-09-30T03:39:28.615Z,11.20
2022-09-30T03:42:07.581Z,11.60
2022-09-30T03:44:59.209Z,5.00
2022-09-30T03:47:33.511Z,16.75
2022-09-30T03:50:06.371Z,7.95
2022-09-30T03:52:33.803Z,8.60
2022-09-30T03:55:03.442Z,6.60
2022-09-30T03:57:30.713Z,7.55
2022-09-30T03:59:58.035Z,15.60
2022-09-30T04:02:27.707Z,12.35
2022-09-30T04:04:54.169Z,11.30
2022-09-30T04:07:23.237Z,11.68
2022-09-30T04:09:49.668Z,16.52
2022-09-30T04:12:16.453Z,8.02
2022-09-30T04:14:42.861Z,9.70
2022-09-30T04:17:09.833Z,7.20
2022-09-30T04:19:39.990Z,10.27
2022-09-30T04:22:09.865Z,9.35
2022-09-30T04:24:36.631Z,5.80
2022-09-30T04:27:05.962Z,6.07
2022-09-30T04:29:32.352Z,5.80
2022-09-30T04:31:59.011Z,8.38
2022-09-30T04:34:25.460Z,7.60
2022-09-30T04:36:51.876Z,8.43
2022-09-30T04:39:20.682Z,7.00
2022-09-30T04:41:47.189Z,7.15
2022-09-30T04:44:15.925Z,7.03
2022-09-30T04:46:44.619Z,8.05
2022-09-30T04:49:11.048Z,9.30
2022-09-30T04:51:43.843Z,14.43
2022-09-30T04:54:13.123Z,10.68
2022-09-30T04:56:39.667Z,7.10
2022-09-30T04:59:06.268Z,9.05
2022-09-30T05:01:32.763Z,10.15
2022-09-30T05:04:01.823Z,14.27
2022-09-30T05:06:28.805Z,17.83
2022-09-30T05:08:55.284Z,5.55
2022-09-30T05:11:25.543Z,8.32
2022-09-30T05:13:55.220Z,5.32
2022-09-30T05:16:22.042Z,8.23
2022-09-30T05:18:49.453Z,8.38
2022-09-30T05:21:18.205Z,12.50
2022-09-30T05:23:45.010Z,9.38
2022-09-30T05:26:12.788Z,6.95
2022-09-30T05:28:40.811Z,6.55
2022-09-30T05:31:07.501Z,4.55
2022-09-30T05:33:36.171Z,8.00
2022-09-30T05:36:11.899Z,6.38
2022-09-30T05:38:38.250Z,10.88
2022-09-30T05:41:14.866Z,11.73
2022-09-30T05:43:45.274Z,8.05
2022-09-30T05:46:11.719Z,4.55
2022-09-30T05:48:38.153Z,2.45
2022-09-30T05:51:04.700Z,6.07
2022-09-30T05:53:32.005Z,4.93
2022-09-30T05:55:59.381Z,6.80
2022-09-30T05:58:26.222Z,9.13
2022-09-30T06:00:53.006Z,4.40
2022-09-30T06:03:21.770Z,8.95
2022-09-30T06:05:48.384Z,4.80
2022-09-30T06:08:15.725Z,10.05
2022-09-30T06:10:43.975Z,9.00
2022-09-30T06:13:12.879Z,12.63
2022-09-30T06:15:41.281Z,12.30
2022-09-30T06:18:12.770Z,11.15
2022-09-30T06:20:41.443Z,13.88
2022-09-30T06:23:10.224Z,20.08
2022-09-30T06:25:36.598Z,16.70
2022-09-30T06:28:05.274Z,26.85
2022-09-30T06:30:35.015Z,25.75
2022-09-30T06:33:04.007Z,25.08
2022-09-30T06:35:30.352Z,23.13
2022-09-30T06:37:56.775Z,22.50
2022-09-30T06:40:26.015Z,21.15
2022-09-30T06:43:01.289Z,16.17
2022-09-30T06:45:32.952Z,17.38
2022-09-30T06:48:04.089Z,8.52
2022-09-30T06:50:31.775Z,16.73
2022-09-30T06:53:02.270Z,13.20
2022-09-30T06:55:30.153Z,11.15
2022-09-30T06:57:59.726Z,10.77
2022-09-30T07:00:27.774Z,13.80
2022-09-30T07:02:56.518Z,11.45
2022-09-30T07:05:25.671Z,19.73
2022-09-30T07:07:53.598Z,11.45
2022-09-30T07:10:21.014Z,16.00
2022-09-30T07:12:56.030Z,25.65
2022-09-30T07:15:24.900Z,34.25
2022-09-30T07:17:52.993Z,27.75
2022-09-30T07:20:19.738Z,26.33
2022-09-30T07:22:46.320Z,29.08
2022-09-30T07:25:14.128Z,23.40
2022-09-30T07:27:41.173Z,24.08
2022-09-30T07:30:14.171Z,28.90
2022-09-30T07:32:47.918Z,29.20
2022-09-30T07:35:16.837Z,20.10
2022-09-30T07:37:43.199Z,22.73
2022-09-30T07:40:10.113Z,23.45
2022-09-30T07:42:39.433Z,26.52
2022-09-30T07:45:06.424Z,27.20
2022-09-30T07:47:32.869Z,22.50
2022-09-30T07:49:59.568Z,20.90
2022-09-30T07:52:25.935Z,17.00
2022-09-30T07:54:52.420Z,24.92
2022-09-30T07:57:18.879Z,22.92
2022-09-30T07:59:45.307Z,25.17
2022-09-30T08:02:16.184Z,25.95
2022-09-30T08:04:44.302Z,24.90
2022-09-30T08:07:15.181Z,23.08
2022-09-30T08:09:42.173Z,25.52
2022-09-30T08:12:11.013Z,20.15
2022-09-30T08:14:37.467Z,21.25
2022-09-30T08:17:04.199Z,20.70
2022-09-30T08:19:33.478Z,24.10
2022-09-30T08:21:59.973Z,22.35
2022-09-30T08:24:29.549Z,21.35
2022-09-30T08:26:56.371Z,24.02
2022-09-30T08:32:11.834Z,17.10
2022-09-30T08:34:38.231Z,21.92
2022-09-30T08:37:09.138Z,16.83
2022-09-30T08:39:38.901Z,23.20
2022-09-30T08:42:37.420Z,22.17
2022-09-30T08:45:24.624Z,23.20
2022-09-30T08:48:13.620Z,18.20
2022-09-30T08:51:20.907Z,22.50
2022-09-30T08:53:48.448Z,20.55
2022-09-30T08:56:25.381Z,26.98
2022-09-30T08:58:57.969Z,20.05
2022-09-30T09:01:40.740Z,17.80
2022-09-30T09:04:07.948Z,24.55
2022-09-30T09:06:46.843Z,23.05
2022-09-30T09:09:36.470Z,21.08
2022-09-30T09:12:15.676Z,19.70
2022-09-30T09:14:55.375Z,22.45
2022-09-30T09:17:44.443Z,19.80
2022-09-30T09:20:16.137Z,22.93
2022-09-30T09:22:45.948Z,22.58
2022-09-30T09:25:20.091Z,25.25
2022-09-30T09:27:52.876Z,24.15
2022-09-30T09:30:25.204Z,23.52
2022-09-30T09:32:55.308Z,30.88
2022-09-30T09:35:29.933Z,23.80
2022-09-30T09:38:35.774Z,20.85
2022-09-30T09:41:21.346Z,22.30
2022-09-30T09:44:09.394Z,21.98
2022-09-30T09:47:05.275Z,24.00
2022-09-30T09:49:41.641Z,27.33
2022-09-30T09:52:11.627Z,20.35
2022-09-30T09:54:46.735Z,12.55
2022-09-30T09:57:18.013Z,12.25
2022-09-30T10:02:31.919Z,15.02
2022-09-30T10:05:03.395Z,19.02
2022-09-30T10:07:34.433Z,13.02
2022-09-30T10:10:09.248Z,21.80
2022-09-30T10:12:35.795Z,9.75
2022-09-30T10:15:20.996Z,25.77
2022-09-30T10:17:53.822Z,16.27
2022-09-30T10:20:33.977Z,13.52
2022-09-30T10:23:07.781Z,13.68
2022-09-30T10:25:34.512Z,16.55
2022-09-30T10:28:03.505Z,12.20
2022-09-30T10:30:39.071Z,14.90
2022-09-30T10:33:16.066Z,15.75
2022-09-30T10:36:03.307Z,15.70
2022-09-30T10:38:34.735Z,11.23
2022-09-30T10:41:06.532Z,12.40
2022-09-30T10:43:49.442Z,13.85
2022-09-30T10:46:27.250Z,16.75
2022-09-30T10:48:56.719Z,18.50
2022-09-30T10:51:28.860Z,13.45
2022-09-30T10:53:56.577Z,14.75
2022-09-30T10:56:44.668Z,16.33
2022-09-30T10:59:29.048Z,12.77
2022-09-30T11:02:06.153Z,14.65
2022-09-30T11:04:38.457Z,9.63
2022-09-30T11:07:39.086Z,8.93
2022-09-30T11:10:08.249Z,10.13
2022-09-30T11:12:48.658Z,11.85
2022-09-30T11:15:29.373Z,9.68
2022-09-30T11:18:19.160Z,9.13
2022-09-30T11:20:56.806Z,8.90
2022-09-30T11:23:44.503Z,11.77
2022-09-30T11:26:49.222Z,12.38
2022-09-30T11:29:44.773Z,6.53
2022-09-30T11:32:48.553Z,12.23
2022-09-30T11:35:24.382Z,6.85
2022-09-30T11:38:12.311Z,6.10
2022-09-30T11:41:07.349Z,5.80
2022-09-30T11:43:52.314Z,20.10
2022-09-30T11:46:36.827Z,11.20
2022-09-30T11:49:30.737Z,10.52
2022-09-30T11:52:02.969Z,14.13
2022-09-30T11:54:45.528Z,7.32
2022-09-30T11:57:40.866Z,9.40
2022-09-30T12:00:25.369Z,8.88
2022-09-30T12:02:54.497Z,13.00
2022-09-30T12:05:20.965Z,9.23
2022-09-30T12:07:52.108Z,6.82
2022-09-30T12:10:27.343Z,9.10
2022-09-30T12:13:00.158Z,9.20
2022-09-30T12:15:28.516Z,8.85
2022-09-30T12:18:07.514Z,5.70
2022-09-30T12:20:36.698Z,6.10
2022-09-30T12:23:24.921Z,6.40
2022-09-30T12:25:57.426Z,5.72
2022-09-30T12:29:03.554Z,4.00
2022-09-30T12:32:09.207Z,4.60
2022-09-30T12:34:48.241Z,4.47
2022-09-30T12:37:36.608Z,6.03
2022-09-30T12:40:05.885Z,9.07
2022-09-30T12:43:03.643Z,8.43
2022-09-30T12:45:54.981Z,9.13
2022-09-30T12:48:26.388Z,4.33
2022-09-30T12:50:57.842Z,5.10
2022-09-30T12:53:28.976Z,4.07
2022-09-30T12:56:04.058Z,4.60
2022-09-30T12:58:35.104Z,5.95
2022-09-30T13:01:13.164Z,9.63
2022-09-30T13:03:57.204Z,6.00
2022-09-30T13:06:23.659Z,10.65
2022-09-30T13:09:11.778Z,4.78
2022-09-30T13:11:48.271Z,5.78
2022-09-30T13:14:26.240Z,6.38
2022-09-30T13:17:01.986Z,7.38
2022-09-30T13:19:36.182Z,5.03
2022-09-30T13:22:20.578Z,4.00
2022-09-30T13:25:00.475Z,5.85
2022-09-30T13:27:43.622Z,6.45
2022-09-30T13:30:13.032Z,2.13
2022-09-30T13:32:41.099Z,2.40
2022-09-30T13:35:29.328Z,7.63
2022-09-30T13:38:14.066Z,7.15
2022-09-30T13:41:02.342Z,4.18
2022-09-30T13:43:46.370Z,9.20
2022-09-30T13:46:35.606Z,3.72
2022-09-30T13:49:17.672Z,3.75
2022-09-30T13:51:45.717Z,5.95
2022-09-30T13:54:31.739Z,2.13
2022-09-30T13:57:02.681Z,2.67
2022-09-30T13:59:31.747Z,2.20
2022-09-30T14:02:38.781Z,1.27
2022-09-30T14:05:35.080Z,3.33
2022-09-30T14:08:24.471Z,4.93
2022-09-30T14:11:05.844Z,1.45
2022-09-30T14:13:48.856Z,3.53
2022-09-30T14:16:56.683Z,3.55
2022-09-30T14:19:25.841Z,2.67
2022-09-30T14:21:58.571Z,5.15
2022-09-30T14:24:35.107Z,2.10
2022-09-30T14:27:06.366Z,3.42
2022-09-30T14:30:03.650Z,3.78
2022-09-30T14:32:31.432Z,4.00
2022-09-30T14:34:59.813Z,4.68
2022-09-30T14:37:30.781Z,2.33
2022-09-30T14:39:58.282Z,3.35
2022-09-30T14:42:36.197Z,4.82
2022-09-30T14:45:04.895Z,1.00
2022-09-30T14:47:47.872Z,3.22
2022-09-30T14:50:18.230Z,3.72
2022-09-30T14:52:47.343Z,5.35
2022-09-30T14:55:30.425Z,6.80
2022-09-30T14:58:21.566Z,2.05
2022-09-30T15:00:56.452Z,3.42
2022-09-30T15:03:22.907Z,3.67
2022-09-30T15:05:49.345Z,3.17
2022-09-30T15:08:20.578Z,1.45
2022-09-30T15:10:54.626Z,2.77
2022-09-30T15:13:26.625Z,9.95
2022-09-30T15:18:28.417Z,2.25
2022-09-30T15:20:57.367Z,13.13
2022-09-30T15:23:30.952Z,4.82
2022-09-30T15:26:02.318Z,5.10
2022-09-30T15:28:28.885Z,8.63
2022-09-30T15:30:58.225Z,5.40
2022-09-30T15:33:32.260Z,1.25
2022-09-30T15:36:24.542Z,1.80
2022-09-30T15:38:51.958Z,5.13
2022-09-30T15:41:18.530Z,2.95
2022-09-30T15:43:51.793Z,1.30
2022-09-30T15:46:26.122Z,3.15
2022-09-30T15:48:55.000Z,2.58
2022-09-30T15:51:39.041Z,5.38
2022-09-30T15:54:38.577Z,1.83
2022-09-30T15:57:37.250Z,3.28
2022-09-30T16:00:08.645Z,9.77
2022-09-30T16:02:35.829Z,2.58
2022-09-30T16:05:02.833Z,4.88
2022-09-30T16:07:34.697Z,8.20
2022-09-30T16:10:01.192Z,4.32
2022-09-30T16:12:33.585Z,7.35
2022-09-30T16:15:06.316Z,9.95
2022-09-30T16:17:35.412Z,4.22
2022-09-30T16:20:08.453Z,5.35
2022-09-30T16:22:40.686Z,4.50
2022-09-30T16:25:10.071Z,9.73
2022-09-30T16:27:37.553Z,7.05
2022-09-30T16:30:06.463Z,8.20
2022-09-30T16:32:37.529Z,8.88
2022-09-30T16:35:07.920Z,3.90
2022-09-30T16:37:35.289Z,5.15
2022-09-30T16:40:16.061Z,9.95
2022-09-30T16:42:42.520Z,17.33
2022-09-30T16:45:12.300Z,7.32
2022-09-30T16:47:38.955Z,7.07
2022-09-30T16:50:28.386Z,5.55
2022-09-30T16:52:55.183Z,11.50
2022-09-30T16:55:21.604Z,8.32
2022-09-30T16:57:48.076Z,10.75
2022-09-30T17:00:18.359Z,7.55
2022-09-30T17:02:49.057Z,10.60
2022-09-30T17:05:18.745Z,18.75
2022-09-30T17:07:51.494Z,10.75
2022-09-30T17:10:28.874Z,5.93
2022-09-30T17:12:56.685Z,9.10
2022-09-30T17:15:23.330Z,9.98
2022-09-30T17:17:49.946Z,11.45
2022-09-30T17:20:16.409Z,15.95
2022-09-30T17:22:43.068Z,10.82
2022-09-30T17:25:10.170Z,22.48
2022-09-30T17:27:37.541Z,41.15
2022-09-30T17:30:05.771Z,42.05
2022-09-30T17:32:32.157Z,15.35
2022-09-30T17:34:58.572Z,10.88
2022-09-30T17:37:26.897Z,12.55
2022-09-30T17:39:53.684Z,10.25
2022-09-30T17:42:38.740Z,7.93
2022-09-30T17:45:07.678Z,8.90
2022-09-30T17:47:39.687Z,8.63
2022-09-30T17:50:09.074Z,5.35
2022-09-30T17:52:37.967Z,15.27
2022-09-30T17:55:04.694Z,10.15
2022-09-30T17:57:38.460Z,32.80
2022-09-30T18:00:05.467Z,34.45
2022-09-30T18:02:34.552Z,27.90
2022-09-30T18:05:01.051Z,19.83
2022-09-30T18:07:28.015Z,18.30
2022-09-30T18:09:54.603Z,19.23
2022-09-30T18:12:20.968Z,44.30
2022-09-30T18:14:49.656Z,24.08
2022-09-30T18:17:16.109Z,18.05
2022-09-30T18:19:44.597Z,22.35
2022-09-30T18:22:13.425Z,13.93
2022-09-30T18:25:01.077Z,10.82
2022-09-30T18:27:33.912Z,17.77
2022-09-30T18:30:04.297Z,12.80
2022-09-30T18:32:34.340Z,14.05
2022-09-30T18:35:00.708Z,11.75
2022-09-30T18:37:28.832Z,15.95
2022-09-30T18:39:55.205Z,13.05
2022-09-30T18:42:24.257Z,19.20
2022-09-30T18:44:51.615Z,18.58
2022-09-30T18:47:18.209Z,20.00
2022-09-30T18:49:44.690Z,17.58
2022-09-30T18:52:11.676Z,14.05
2022-09-30T18:54:38.166Z,11.82
2022-09-30T18:57:05.034Z,26.10
2022-09-30T18:59:31.446Z,9.40
2022-09-30T19:01:59.605Z,13.73
2022-09-30T19:04:28.953Z,10.60
2022-09-30T19:07:01.007Z,10.68
2022-09-30T19:09:28.275Z,7.18
2022-09-30T19:11:55.555Z,7.63
2022-09-30T19:14:22.913Z,5.90
2022-09-30T19:16:51.203Z,4.72
2022-09-30T19:19:18.284Z,6.63
2022-09-30T19:21:44.794Z,6.40
2022-09-30T19:24:11.137Z,6.10
2022-09-30T19:26:38.814Z,7.97
2022-09-30T19:29:07.672Z,5.30
2022-09-30T19:31:36.170Z,3.53
2022-09-30T19:34:06.399Z,7.95
2022-09-30T19:36:43.623Z,6.47
2022-09-30T19:39:14.014Z,8.30
2022-09-30T19:41:40.513Z,8.70
2022-09-30T19:44:07.080Z,4.40
2022-09-30T19:46:35.798Z,5.97
2022-09-30T19:49:02.314Z,15.52
2022-09-30T19:51:30.645Z,12.55
2022-09-30T19:54:06.844Z,8.90
2022-09-30T19:56:36.286Z,7.85
2022-09-30T19:59:04.177Z,8.98
2022-09-30T20:01:31.232Z,5.20
2022-09-30T20:04:04.640Z,8.32
2022-09-30T20:06:35.189Z,6.82
2022-09-30T20:09:04.241Z,13.27
2022-09-30T20:11:33.743Z,7.60
2022-09-30T20:14:20.578Z,9.75
2022-09-30T20:16:49.989Z,8.63
2022-09-30T20:19:17.714Z,10.20
2022-09-30T20:21:45.881Z,10.25
2022-09-30T20:24:17.191Z,18.50
2022-09-30T20:26:47.518Z,8.38
2022-09-30T20:29:14.244Z,17.02
2022-09-30T20:31:42.827Z,10.35
2022-09-30T20:34:11.984Z,9.10
2022-09-30T20:36:40.255Z,6.85
2022-09-30T20:39:09.365Z,5.43
2022-09-30T20:41:38.005Z,5.07
2022-09-30T20:44:08.453Z,6.88
2022-09-30T20:46:35.017Z,5.85
2022-09-30T20:49:02.451Z,5.25
2022-09-30T20:51:32.650Z,6.07
2022-09-30T20:54:00.188Z,12.43
2022-09-30T20:56:39.281Z,13.70
2022-09-30T20:59:16.052Z,10.48
2022-09-30T21:01:42.620Z,5.10
2022-09-30T21:04:11.561Z,10.73
2022-09-30T21:06:37.935Z,13.55
2022-09-30T21:09:05.385Z,7.93
2022-09-30T21:11:32.233Z,7.13
2022-09-30T21:14:01.827Z,5.18
2022-09-30T21:16:29.493Z,4.20
2022-09-30T21:18:56.275Z,5.90
2022-09-30T21:21:26.901Z,7.18
2022-09-30T21:23:57.476Z,9.85
2022-09-30T21:26:24.745Z,9.00
2022-09-30T21:28:53.761Z,6.47
2022-09-30T21:31:23.032Z,8.13
2022-09-30T21:33:55.166Z,6.47
2022-09-30T21:36:22.161Z,6.65
2022-09-30T21:38:49.670Z,6.55
2022-09-30T21:41:17.229Z,7.57
2022-09-30T21:43:46.380Z,6.13
2022-09-30T21:46:15.068Z,7.05
2022-09-30T21:48:42.334Z,12.73
2022-09-30T21:51:09.973Z,8.75
2022-09-30T21:53:36.871Z,8.73
2022-09-30T21:56:04.472Z,10.90
2022-09-30T21:58:32.755Z,9.68
2022-09-30T22:01:01.768Z,8.18
2022-09-30T22:03:36.319Z,10.63
2022-09-30T22:06:07.017Z,7.15
2022-09-30T22:08:36.265Z,15.57
2022-09-30T22:11:06.900Z,7.88
2022-09-30T22:13:33.302Z,18.02
2022-09-30T22:16:09.868Z,13.88
2022-09-30T22:18:36.368Z,10.48
2022-09-30T22:21:08.941Z,12.40
2022-09-30T22:23:35.672Z,11.80
2022-09-30T22:26:18.085Z,6.65
2022-09-30T22:28:46.282Z,9.70
2022-09-30T22:31:21.123Z,13.63
2022-09-30T22:34:19.307Z,9.77
2022-09-30T22:37:04.761Z,10.07
2022-09-30T22:39:31.325Z,6.32
2022-09-30T22:41:58.504Z,12.70
2022-09-30T22:44:30.432Z,9.85
2022-09-30T22:47:02.340Z,16.00
2022-09-30T22:49:32.485Z,9.75
2022-09-30T22:52:00.816Z,10.25
2022-09-30T22:54:28.453Z,8.80
2022-09-30T22:56:55.364Z,15.65
2022-09-30T22:59:23.619Z,11.10
2022-09-30T23:01:50.195Z,12.93
2022-09-30T23:04:17.930Z,8.63
2022-09-30T23:06:49.851Z,14.73
2022-09-30T23:09:17.523Z,10.73
2022-09-30T23:11:44.313Z,12.07
2022-09-30T23:14:10.807Z,16.17
2022-09-30T23:16:37.313Z,20.20
2022-09-30T23:19:06.334Z,18.48
2022-09-30T23:21:33.708Z,9.82
2022-09-30T23:24:00.599Z,7.60
2022-09-30T23:26:28.625Z,16.15
2022-09-30T23:29:00.203Z,8.75
2022-09-30T23:31:29.361Z,8.32
2022-09-30T23:34:04.998Z,12.27
2022-09-30T23:36:37.092Z,15.23
2022-09-30T23:39:12.312Z,10.18
2022-09-30T23:41:39.293Z,8.98
2022-09-30T23:44:05.727Z,8.63
2022-09-30T23:46:32.254Z,11.32
2022-09-30T23:48:58.801Z,9.27
2022-09-30T23:51:25.330Z,9.93
2022-09-30T23:53:51.773Z,4.72
2022-09-30T23:56:19.292Z,9.20
2022-09-30T23:58:46.669Z,5.75
